sensor_id;sensor_type;location;lat;lon;timestamp;P1;durP1;ratioP1;P2;durP2;ratioP2
72684;SDS011;61365;52.162;4.500;2022-11-11T00:01:05;16.05;;;5.88;;
72684;SDS011;61365;52.162;4.500;2022-11-11T00:03:36;14.77;;;5.47;;
72684;SDS011;61365;52.162;4.500;2022-11-11T00:06:15;17.35;;;6.43;;
72684;SDS011;61365;52.162;4.500;2022-11-11T00:08:42;16.17;;;6.60;;
72684;SDS011;61365;52.162;4.500;2022-11-11T00:11:12;16.63;;;6.70;;
72684;SDS011;61365;52.162;4.500;2022-11-11T00:13:41;15.98;;;6.68;;
72684;SDS011;61365;52.162;4.500;2022-11-11T00:16:10;19.00;;;7.72;;
72684;SDS011;61365;52.162;4.500;2022-11-11T00:18:42;15.63;;;7.82;;
72684;SDS011;61365;52.162;4.500;2022-11-11T00:21:27;18.10;;;8.68;;
72684;SDS011;61365;52.162;4.500;2022-11-11T00:27:07;24.15;;;11.48;;
72684;SDS011;61365;52.162;4.500;2022-11-11T00:29:36;22.80;;;11.48;;
72684;SDS011;61365;52.162;4.500;2022-11-11T00:32:03;24.88;;;12.40;;
72684;SDS011;61365;52.162;4.500;2022-11-11T00:34:49;27.70;;;13.90;;
72684;SDS011;61365;52.162;4.500;2022-11-11T00:37:36;26.35;;;13.35;;
72684;SDS011;61365;52.162;4.500;2022-11-11T00:40:03;29.50;;;13.43;;
72684;SDS011;61365;52.162;4.500;2022-11-11T00:42:31;27.45;;;14.10;;
72684;SDS011;61365;52.162;4.500;2022-11-11T00:44:58;25.92;;;14.45;;
72684;SDS011;61365;52.162;4.500;2022-11-11T00:47:24;26.08;;;14.07;;
72684;SDS011;61365;52.162;4.500;2022-11-11T00:50:14;26.52;;;14.73;;
72684;SDS011;61365;52.162;4.500;2022-11-11T00:52:59;28.90;;;15.10;;
72684;SDS011;61365;52.162;4.500;2022-11-11T00:55:28;34.60;;;15.65;;
72684;SDS011;61365;52.162;4.500;2022-11-11T00:57:54;29.73;;;14.32;;
72684;SDS011;61365;52.162;4.500;2022-11-11T01:00:20;27.70;;;15.35;;
72684;SDS011;61365;52.162;4.500;2022-11-11T01:02:47;32.38;;;15.48;;
72684;SDS011;61365;52.162;4.500;2022-11-11T01:05:13;29.50;;;16.27;;
72684;SDS011;61365;52.162;4.500;2022-11-11T01:07:40;27.80;;;15.20;;
72684;SDS011;61365;52.162;4.500;2022-11-11T01:10:06;30.42;;;16.38;;
72684;SDS011;61365;52.162;4.500;2022-11-11T01:12:33;30.05;;;15.55;;
72684;SDS011;61365;52.162;4.500;2022-11-11T01:14:59;36.30;;;17.00;;
72684;SDS011;61365;52.162;4.500;2022-11-11T01:17:25;26.80;;;15.93;;
72684;SDS011;61365;52.162;4.500;2022-11-11T01:19:52;32.83;;;16.48;;
72684;SDS011;61365;52.162;4.500;2022-11-11T01:22:18;32.13;;;17.55;;
72684;SDS011;61365;52.162;4.500;2022-11-11T01:24:44;34.72;;;17.10;;
72684;SDS011;61365;52.162;4.500;2022-11-11T01:27:11;30.65;;;17.08;;
72684;SDS011;61365;52.162;4.500;2022-11-11T01:29:37;34.25;;;17.85;;
72684;SDS011;61365;52.162;4.500;2022-11-11T01:32:04;31.92;;;18.08;;
72684;SDS011;61365;52.162;4.500;2022-11-11T01:34:30;36.20;;;17.85;;
72684;SDS011;61365;52.162;4.500;2022-11-11T01:36:56;30.80;;;16.75;;
72684;SDS011;61365;52.162;4.500;2022-11-11T01:39:23;32.53;;;15.95;;
72684;SDS011;61365;52.162;4.500;2022-11-11T01:41:49;33.47;;;16.95;;
72684;SDS011;61365;52.162;4.500;2022-11-11T01:44:39;32.60;;;17.23;;
72684;SDS011;61365;52.162;4.500;2022-11-11T01:47:11;34.05;;;17.05;;
72684;SDS011;61365;52.162;4.500;2022-11-11T01:49:45;34.33;;;17.90;;
72684;SDS011;61365;52.162;4.500;2022-11-11T02:00:04;33.25;;;17.83;;
72684;SDS011;61365;52.162;4.500;2022-11-11T02:02:51;30.02;;;16.20;;
72684;SDS011;61365;52.162;4.500;2022-11-11T02:05:24;36.55;;;17.83;;
72684;SDS011;61365;52.162;4.500;2022-11-11T02:08:12;36.60;;;18.35;;
72684;SDS011;61365;52.162;4.500;2022-11-11T02:11:01;39.10;;;19.48;;
72684;SDS011;61365;52.162;4.500;2022-11-11T02:14:01;33.92;;;18.70;;
72684;SDS011;61365;52.162;4.500;2022-11-11T02:16:46;37.88;;;19.80;;
72684;SDS011;61365;52.162;4.500;2022-11-11T02:19:13;34.67;;;19.00;;
72684;SDS011;61365;52.162;4.500;2022-11-11T02:21:51;32.85;;;18.35;;
72684;SDS011;61365;52.162;4.500;2022-11-11T02:24:26;32.83;;;18.73;;
72684;SDS011;61365;52.162;4.500;2022-11-11T02:26:55;32.22;;;18.05;;
72684;SDS011;61365;52.162;4.500;2022-11-11T02:29:24;39.83;;;20.45;;
72684;SDS011;61365;52.162;4.500;2022-11-11T02:31:51;35.63;;;19.92;;
72684;SDS011;61365;52.162;4.500;2022-11-11T02:34:18;35.10;;;20.02;;
72684;SDS011;61365;52.162;4.500;2022-11-11T02:36:44;34.63;;;18.13;;
72684;SDS011;61365;52.162;4.500;2022-11-11T02:39:10;35.00;;;19.75;;
72684;SDS011;61365;52.162;4.500;2022-11-11T02:41:37;37.55;;;19.30;;
72684;SDS011;61365;52.162;4.500;2022-11-11T02:44:22;38.95;;;19.45;;
72684;SDS011;61365;52.162;4.500;2022-11-11T02:46:50;38.75;;;20.48;;
72684;SDS011;61365;52.162;4.500;2022-11-11T02:49:17;35.40;;;19.20;;
72684;SDS011;61365;52.162;4.500;2022-11-11T02:51:44;34.63;;;18.38;;
72684;SDS011;61365;52.162;4.500;2022-11-11T02:54:12;40.08;;;19.92;;
72684;SDS011;61365;52.162;4.500;2022-11-11T02:56:38;32.58;;;16.80;;
72684;SDS011;61365;52.162;4.500;2022-11-11T02:59:23;32.33;;;17.17;;
72684;SDS011;61365;52.162;4.500;2022-11-11T03:01:49;36.65;;;18.80;;
72684;SDS011;61365;52.162;4.500;2022-11-11T03:04:16;33.60;;;17.35;;
72684;SDS011;61365;52.162;4.500;2022-11-11T03:06:42;34.47;;;17.85;;
72684;SDS011;61365;52.162;4.500;2022-11-11T03:09:08;34.30;;;17.90;;
72684;SDS011;61365;52.162;4.500;2022-11-11T03:11:34;32.92;;;18.20;;
72684;SDS011;61365;52.162;4.500;2022-11-11T03:14:03;35.72;;;18.13;;
72684;SDS011;61365;52.162;4.500;2022-11-11T03:16:30;37.25;;;18.73;;
72684;SDS011;61365;52.162;4.500;2022-11-11T03:19:14;39.22;;;19.20;;
72684;SDS011;61365;52.162;4.500;2022-11-11T03:21:41;30.60;;;18.75;;
72684;SDS011;61365;52.162;4.500;2022-11-11T03:24:07;37.78;;;18.80;;
72684;SDS011;61365;52.162;4.500;2022-11-11T03:26:34;43.38;;;19.70;;
72684;SDS011;61365;52.162;4.500;2022-11-11T03:29:00;36.35;;;18.02;;
72684;SDS011;61365;52.162;4.500;2022-11-11T03:31:27;36.20;;;17.92;;
72684;SDS011;61365;52.162;4.500;2022-11-11T03:33:53;39.05;;;19.58;;
72684;SDS011;61365;52.162;4.500;2022-11-11T03:36:20;34.08;;;15.73;;
72684;SDS011;61365;52.162;4.500;2022-11-11T03:39:06;36.55;;;18.40;;
72684;SDS011;61365;52.162;4.500;2022-11-11T03:41:32;42.28;;;18.58;;
72684;SDS011;61365;52.162;4.500;2022-11-11T03:43:59;31.58;;;16.55;;
72684;SDS011;61365;52.162;4.500;2022-11-11T03:46:25;37.95;;;18.38;;
72684;SDS011;61365;52.162;4.500;2022-11-11T03:48:51;32.05;;;17.40;;
72684;SDS011;61365;52.162;4.500;2022-11-11T03:51:18;34.67;;;18.10;;
72684;SDS011;61365;52.162;4.500;2022-11-11T03:53:44;38.40;;;19.60;;
72684;SDS011;61365;52.162;4.500;2022-11-11T03:56:10;42.38;;;20.13;;
72684;SDS011;61365;52.162;4.500;2022-11-11T03:58:37;35.95;;;18.92;;
72684;SDS011;61365;52.162;4.500;2022-11-11T04:01:03;35.00;;;18.88;;
72684;SDS011;61365;52.162;4.500;2022-11-11T04:03:49;44.90;;;20.27;;
72684;SDS011;61365;52.162;4.500;2022-11-11T04:06:36;36.65;;;20.90;;
72684;SDS011;61365;52.162;4.500;2022-11-11T04:09:21;39.67;;;20.95;;
72684;SDS011;61365;52.162;4.500;2022-11-11T04:12:05;39.05;;;19.98;;
72684;SDS011;61365;52.162;4.500;2022-11-11T04:14:32;35.38;;;19.98;;
72684;SDS011;61365;52.162;4.500;2022-11-11T04:17:16;40.63;;;21.05;;
72684;SDS011;61365;52.162;4.500;2022-11-11T04:19:43;38.20;;;20.60;;
72684;SDS011;61365;52.162;4.500;2022-11-11T04:22:28;38.53;;;20.48;;
72684;SDS011;61365;52.162;4.500;2022-11-11T04:24:54;41.25;;;20.33;;
72684;SDS011;61365;52.162;4.500;2022-11-11T04:27:39;37.00;;;22.00;;
72684;SDS011;61365;52.162;4.500;2022-11-11T04:30:05;33.25;;;20.50;;
72684;SDS011;61365;52.162;4.500;2022-11-11T04:32:32;37.78;;;21.55;;
72684;SDS011;61365;52.162;4.500;2022-11-11T04:35:06;42.30;;;21.92;;
72684;SDS011;61365;52.162;4.500;2022-11-11T04:37:36;48.70;;;23.90;;
72684;SDS011;61365;52.162;4.500;2022-11-11T04:40:34;45.58;;;22.67;;
72684;SDS011;61365;52.162;4.500;2022-11-11T04:43:19;43.83;;;22.38;;
72684;SDS011;61365;52.162;4.500;2022-11-11T04:45:45;43.85;;;22.38;;
72684;SDS011;61365;52.162;4.500;2022-11-11T04:48:11;40.78;;;20.98;;
72684;SDS011;61365;52.162;4.500;2022-11-11T04:50:39;40.58;;;23.27;;
72684;SDS011;61365;52.162;4.500;2022-11-11T04:53:08;39.08;;;21.48;;
72684;SDS011;61365;52.162;4.500;2022-11-11T04:55:38;43.58;;;24.05;;
72684;SDS011;61365;52.162;4.500;2022-11-11T04:58:26;40.40;;;21.88;;
72684;SDS011;61365;52.162;4.500;2022-11-11T05:01:00;42.22;;;22.77;;
72684;SDS011;61365;52.162;4.500;2022-11-11T05:03:26;41.97;;;22.85;;
72684;SDS011;61365;52.162;4.500;2022-11-11T05:05:56;39.78;;;21.25;;
72684;SDS011;61365;52.162;4.500;2022-11-11T05:08:46;38.20;;;21.48;;
72684;SDS011;61365;52.162;4.500;2022-11-11T05:11:33;44.40;;;22.38;;
72684;SDS011;61365;52.162;4.500;2022-11-11T05:14:02;42.97;;;23.33;;
72684;SDS011;61365;52.162;4.500;2022-11-11T05:16:50;39.58;;;21.77;;
72684;SDS011;61365;52.162;4.500;2022-11-11T05:19:38;41.40;;;20.70;;
72684;SDS011;61365;52.162;4.500;2022-11-11T05:22:31;39.05;;;22.17;;
72684;SDS011;61365;52.162;4.500;2022-11-11T05:25:02;43.03;;;22.60;;
72684;SDS011;61365;52.162;4.500;2022-11-11T05:27:48;34.55;;;19.90;;
72684;SDS011;61365;52.162;4.500;2022-11-11T05:30:15;40.38;;;20.98;;
72684;SDS011;61365;52.162;4.500;2022-11-11T05:32:42;47.67;;;22.90;;
72684;SDS011;61365;52.162;4.500;2022-11-11T05:35:09;33.90;;;20.38;;
72684;SDS011;61365;52.162;4.500;2022-11-11T05:37:39;37.80;;;21.08;;
72684;SDS011;61365;52.162;4.500;2022-11-11T05:40:06;35.88;;;19.25;;
72684;SDS011;61365;52.162;4.500;2022-11-11T05:42:34;37.03;;;20.63;;
72684;SDS011;61365;52.162;4.500;2022-11-11T05:45:01;40.13;;;22.08;;
72684;SDS011;61365;52.162;4.500;2022-11-11T05:47:27;38.78;;;21.25;;
72684;SDS011;61365;52.162;4.500;2022-11-11T05:49:53;37.15;;;21.20;;
72684;SDS011;61365;52.162;4.500;2022-11-11T05:52:20;33.25;;;19.98;;
72684;SDS011;61365;52.162;4.500;2022-11-11T05:54:46;36.85;;;21.35;;
72684;SDS011;61365;52.162;4.500;2022-11-11T05:57:12;36.55;;;19.88;;
72684;SDS011;61365;52.162;4.500;2022-11-11T05:59:39;44.05;;;20.60;;
72684;SDS011;61365;52.162;4.500;2022-11-11T06:02:05;38.55;;;20.13;;
72684;SDS011;61365;52.162;4.500;2022-11-11T06:04:31;37.28;;;20.17;;
72684;SDS011;61365;52.162;4.500;2022-11-11T06:07:00;39.90;;;19.80;;
72684;SDS011;61365;52.162;4.500;2022-11-11T06:09:26;36.60;;;21.10;;
72684;SDS011;61365;52.162;4.500;2022-11-11T06:11:52;38.85;;;20.13;;
72684;SDS011;61365;52.162;4.500;2022-11-11T06:14:19;37.35;;;20.88;;
72684;SDS011;61365;52.162;4.500;2022-11-11T06:16:45;36.33;;;19.60;;
72684;SDS011;61365;52.162;4.500;2022-11-11T06:19:11;36.75;;;20.45;;
72684;SDS011;61365;52.162;4.500;2022-11-11T06:21:38;38.40;;;20.88;;
72684;SDS011;61365;52.162;4.500;2022-11-11T06:24:22;42.88;;;21.30;;
72684;SDS011;61365;52.162;4.500;2022-11-11T06:26:49;47.50;;;21.65;;
72684;SDS011;61365;52.162;4.500;2022-11-11T06:29:15;38.28;;;21.80;;
72684;SDS011;61365;52.162;4.500;2022-11-11T06:31:42;33.28;;;20.70;;
72684;SDS011;61365;52.162;4.500;2022-11-11T06:34:10;39.85;;;22.67;;
72684;SDS011;61365;52.162;4.500;2022-11-11T06:36:36;42.88;;;23.10;;
72684;SDS011;61365;52.162;4.500;2022-11-11T06:39:03;38.80;;;21.67;;
72684;SDS011;61365;52.162;4.500;2022-11-11T06:41:29;41.40;;;23.27;;
72684;SDS011;61365;52.162;4.500;2022-11-11T06:43:55;43.10;;;22.70;;
72684;SDS011;61365;52.162;4.500;2022-11-11T06:46:23;42.03;;;23.35;;
72684;SDS011;61365;52.162;4.500;2022-11-11T06:48:50;44.50;;;24.42;;
72684;SDS011;61365;52.162;4.500;2022-11-11T06:51:17;39.50;;;22.77;;
72684;SDS011;61365;52.162;4.500;2022-11-11T06:53:43;41.80;;;24.60;;
72684;SDS011;61365;52.162;4.500;2022-11-11T06:56:10;49.50;;;24.63;;
72684;SDS011;61365;52.162;4.500;2022-11-11T06:58:40;41.40;;;23.58;;
72684;SDS011;61365;52.162;4.500;2022-11-11T07:01:06;43.78;;;24.77;;
72684;SDS011;61365;52.162;4.500;2022-11-11T07:03:34;41.97;;;24.63;;
72684;SDS011;61365;52.162;4.500;2022-11-11T07:06:02;43.58;;;23.88;;
72684;SDS011;61365;52.162;4.500;2022-11-11T07:08:30;39.55;;;23.75;;
72684;SDS011;61365;52.162;4.500;2022-11-11T07:10:58;45.20;;;24.15;;
72684;SDS011;61365;52.162;4.500;2022-11-11T07:13:25;43.78;;;24.02;;
72684;SDS011;61365;52.162;4.500;2022-11-11T07:15:51;49.97;;;24.38;;
72684;SDS011;61365;52.162;4.500;2022-11-11T07:18:17;46.10;;;22.88;;
72684;SDS011;61365;52.162;4.500;2022-11-11T07:20:43;41.70;;;23.48;;
72684;SDS011;61365;52.162;4.500;2022-11-11T07:23:10;44.53;;;23.67;;
72684;SDS011;61365;52.162;4.500;2022-11-11T07:25:36;42.95;;;23.77;;
72684;SDS011;61365;52.162;4.500;2022-11-11T07:28:03;40.45;;;23.80;;
72684;SDS011;61365;52.162;4.500;2022-11-11T07:30:29;50.05;;;22.65;;
72684;SDS011;61365;52.162;4.500;2022-11-11T07:32:56;40.40;;;22.73;;
72684;SDS011;61365;52.162;4.500;2022-11-11T07:35:22;38.63;;;21.85;;
72684;SDS011;61365;52.162;4.500;2022-11-11T07:37:49;38.42;;;21.70;;
72684;SDS011;61365;52.162;4.500;2022-11-11T07:40:16;40.92;;;21.80;;
72684;SDS011;61365;52.162;4.500;2022-11-11T07:42:44;34.67;;;20.52;;
72684;SDS011;61365;52.162;4.500;2022-11-11T07:45:11;36.78;;;21.27;;
72684;SDS011;61365;52.162;4.500;2022-11-11T07:47:43;36.22;;;20.80;;
72684;SDS011;61365;52.162;4.500;2022-11-11T07:50:10;39.35;;;21.90;;
72684;SDS011;61365;52.162;4.500;2022-11-11T07:52:37;41.05;;;23.17;;
72684;SDS011;61365;52.162;4.500;2022-11-11T07:55:05;35.08;;;21.20;;
72684;SDS011;61365;52.162;4.500;2022-11-11T07:57:33;40.53;;;22.40;;
72684;SDS011;61365;52.162;4.500;2022-11-11T07:59:59;41.00;;;22.65;;
72684;SDS011;61365;52.162;4.500;2022-11-11T08:02:25;41.33;;;21.35;;
72684;SDS011;61365;52.162;4.500;2022-11-11T08:04:52;39.95;;;21.58;;
72684;SDS011;61365;52.162;4.500;2022-11-11T08:07:18;36.25;;;20.75;;
72684;SDS011;61365;52.162;4.500;2022-11-11T08:09:44;37.42;;;20.15;;
72684;SDS011;61365;52.162;4.500;2022-11-11T08:12:11;34.53;;;20.15;;
72684;SDS011;61365;52.162;4.500;2022-11-11T08:14:56;36.50;;;19.75;;
72684;SDS011;61365;52.162;4.500;2022-11-11T08:17:22;31.95;;;19.58;;
72684;SDS011;61365;52.162;4.500;2022-11-11T08:19:48;38.30;;;20.88;;
72684;SDS011;61365;52.162;4.500;2022-11-11T08:22:14;37.53;;;21.08;;
72684;SDS011;61365;52.162;4.500;2022-11-11T08:24:41;35.90;;;21.08;;
72684;SDS011;61365;52.162;4.500;2022-11-11T08:27:07;36.03;;;20.73;;
72684;SDS011;61365;52.162;4.500;2022-11-11T08:29:34;36.33;;;21.00;;
72684;SDS011;61365;52.162;4.500;2022-11-11T08:32:00;37.65;;;21.58;;
72684;SDS011;61365;52.162;4.500;2022-11-11T08:34:27;37.60;;;21.20;;
72684;SDS011;61365;52.162;4.500;2022-11-11T08:36:53;39.28;;;21.83;;
72684;SDS011;61365;52.162;4.500;2022-11-11T08:39:20;41.20;;;24.58;;
72684;SDS011;61365;52.162;4.500;2022-11-11T08:41:46;48.13;;;24.23;;
72684;SDS011;61365;52.162;4.500;2022-11-11T08:44:13;42.90;;;24.05;;
72684;SDS011;61365;52.162;4.500;2022-11-11T08:46:39;50.28;;;26.33;;
72684;SDS011;61365;52.162;4.500;2022-11-11T08:49:05;47.55;;;25.98;;
72684;SDS011;61365;52.162;4.500;2022-11-11T08:51:33;49.63;;;26.63;;
72684;SDS011;61365;52.162;4.500;2022-11-11T08:53:59;46.83;;;25.20;;
72684;SDS011;61365;52.162;4.500;2022-11-11T08:56:26;46.97;;;25.58;;
72684;SDS011;61365;52.162;4.500;2022-11-11T08:58:52;42.60;;;25.05;;
72684;SDS011;61365;52.162;4.500;2022-11-11T09:01:18;47.40;;;26.05;;
72684;SDS011;61365;52.162;4.500;2022-11-11T09:03:45;49.65;;;27.98;;
72684;SDS011;61365;52.162;4.500;2022-11-11T09:06:12;52.97;;;28.35;;
72684;SDS011;61365;52.162;4.500;2022-11-11T09:08:40;50.13;;;27.52;;
72684;SDS011;61365;52.162;4.500;2022-11-11T09:11:11;49.00;;;26.30;;
72684;SDS011;61365;52.162;4.500;2022-11-11T09:13:37;43.20;;;25.05;;
72684;SDS011;61365;52.162;4.500;2022-11-11T09:16:05;48.80;;;28.42;;
72684;SDS011;61365;52.162;4.500;2022-11-11T09:18:32;50.97;;;28.85;;
72684;SDS011;61365;52.162;4.500;2022-11-11T09:20:59;49.08;;;27.88;;
72684;SDS011;61365;52.162;4.500;2022-11-11T09:23:26;52.50;;;28.35;;
72684;SDS011;61365;52.162;4.500;2022-11-11T09:25:52;45.15;;;26.88;;
72684;SDS011;61365;52.162;4.500;2022-11-11T09:28:19;44.67;;;25.83;;
72684;SDS011;61365;52.162;4.500;2022-11-11T09:30:45;46.13;;;25.83;;
72684;SDS011;61365;52.162;4.500;2022-11-11T09:33:12;45.80;;;26.63;;
72684;SDS011;61365;52.162;4.500;2022-11-11T09:35:41;41.35;;;24.98;;
72684;SDS011;61365;52.162;4.500;2022-11-11T09:38:07;47.58;;;27.80;;
72684;SDS011;61365;52.162;4.500;2022-11-11T09:46:21;44.33;;;26.27;;
72684;SDS011;61365;52.162;4.500;2022-11-11T09:49:06;45.75;;;27.55;;
72684;SDS011;61365;52.162;4.500;2022-11-11T09:54:47;45.72;;;26.42;;
72684;SDS011;61365;52.162;4.500;2022-11-11T09:57:42;46.80;;;27.75;;
72684;SDS011;61365;52.162;4.500;2022-11-11T10:00:23;47.33;;;27.67;;
72684;SDS011;61365;52.162;4.500;2022-11-11T10:03:37;42.03;;;25.75;;
72684;SDS011;61365;52.162;4.500;2022-11-11T10:08:53;43.08;;;25.38;;
72684;SDS011;61365;52.162;4.500;2022-11-11T10:14:17;41.10;;;24.58;;
72684;SDS011;61365;52.162;4.500;2022-11-11T10:20:13;37.28;;;22.65;;
72684;SDS011;61365;52.162;4.500;2022-11-11T10:25:55;37.92;;;23.83;;
72684;SDS011;61365;52.162;4.500;2022-11-11T10:28:27;41.10;;;24.57;;
72684;SDS011;61365;52.162;4.500;2022-11-11T10:31:01;39.13;;;23.38;;
72684;SDS011;61365;52.162;4.500;2022-11-11T10:33:42;43.95;;;24.65;;
72684;SDS011;61365;52.162;4.500;2022-11-11T10:36:18;40.90;;;23.77;;
72684;SDS011;61365;52.162;4.500;2022-11-11T10:38:58;39.03;;;23.40;;
72684;SDS011;61365;52.162;4.500;2022-11-11T10:41:32;39.50;;;23.40;;
72684;SDS011;61365;52.162;4.500;2022-11-11T10:44:16;36.45;;;22.73;;
72684;SDS011;61365;52.162;4.500;2022-11-11T10:46:53;30.30;;;21.42;;
72684;SDS011;61365;52.162;4.500;2022-11-11T10:49:28;36.90;;;21.33;;
72684;SDS011;61365;52.162;4.500;2022-11-11T11:00:37;37.40;;;22.13;;
72684;SDS011;61365;52.162;4.500;2022-11-11T11:06:19;39.65;;;22.10;;
72684;SDS011;61365;52.162;4.500;2022-11-11T11:08:53;34.08;;;22.58;;
72684;SDS011;61365;52.162;4.500;2022-11-11T11:11:47;36.83;;;22.02;;
72684;SDS011;61365;52.162;4.500;2022-11-11T11:14:33;35.40;;;20.58;;
72684;SDS011;61365;52.162;4.500;2022-11-11T11:17:14;31.05;;;19.10;;
72684;SDS011;61365;52.162;4.500;2022-11-11T11:20:14;31.15;;;19.08;;
72684;SDS011;61365;52.162;4.500;2022-11-11T11:22:47;33.60;;;20.80;;
72684;SDS011;61365;52.162;4.500;2022-11-11T11:25:16;32.20;;;18.88;;
72684;SDS011;61365;52.162;4.500;2022-11-11T11:27:46;28.52;;;17.50;;
72684;SDS011;61365;52.162;4.500;2022-11-11T11:30:21;29.02;;;16.70;;
72684;SDS011;61365;52.162;4.500;2022-11-11T11:32:57;32.33;;;18.45;;
72684;SDS011;61365;52.162;4.500;2022-11-11T11:38:08;33.65;;;18.42;;
72684;SDS011;61365;52.162;4.500;2022-11-11T11:40:50;29.60;;;18.45;;
72684;SDS011;61365;52.162;4.500;2022-11-11T11:43:30;33.17;;;18.80;;
72684;SDS011;61365;52.162;4.500;2022-11-11T11:46:26;32.45;;;20.02;;
72684;SDS011;61365;52.162;4.500;2022-11-11T11:54:48;33.63;;;19.92;;
72684;SDS011;61365;52.162;4.500;2022-11-11T12:00:23;33.95;;;19.50;;
72684;SDS011;61365;52.162;4.500;2022-11-11T12:03:02;31.38;;;17.83;;
72684;SDS011;61365;52.162;4.500;2022-11-11T12:05:57;28.60;;;18.00;;
72684;SDS011;61365;52.162;4.500;2022-11-11T12:08:38;26.23;;;16.55;;
72684;SDS011;61365;52.162;4.500;2022-11-11T12:17:46;24.63;;;15.93;;
72684;SDS011;61365;52.162;4.500;2022-11-11T12:20:39;27.27;;;16.23;;
72684;SDS011;61365;52.162;4.500;2022-11-11T12:26:35;25.52;;;15.75;;
72684;SDS011;61365;52.162;4.500;2022-11-11T12:29:23;26.75;;;16.98;;
72684;SDS011;61365;52.162;4.500;2022-11-11T12:38:08;27.20;;;15.02;;
72684;SDS011;61365;52.162;4.500;2022-11-11T12:41:12;24.00;;;14.85;;
72684;SDS011;61365;52.162;4.500;2022-11-11T12:44:05;23.77;;;13.43;;
72684;SDS011;61365;52.162;4.500;2022-11-11T13:01:54;23.73;;;13.30;;
72684;SDS011;61365;52.162;4.500;2022-11-11T13:04:48;23.30;;;14.10;;
72684;SDS011;61365;52.162;4.500;2022-11-11T13:13:24;28.40;;;15.23;;
72684;SDS011;61365;52.162;4.500;2022-11-11T13:15:53;28.95;;;14.82;;
72684;SDS011;61365;52.162;4.500;2022-11-11T13:18:28;25.55;;;13.55;;
72684;SDS011;61365;52.162;4.500;2022-11-11T13:21:00;26.75;;;15.50;;
72684;SDS011;61365;52.162;4.500;2022-11-11T13:23:35;22.15;;;14.45;;
72684;SDS011;61365;52.162;4.500;2022-11-11T13:26:03;23.33;;;15.40;;
72684;SDS011;61365;52.162;4.500;2022-11-11T13:28:48;25.08;;;14.18;;
72684;SDS011;61365;52.162;4.500;2022-11-11T13:31:33;23.27;;;13.93;;
72684;SDS011;61365;52.162;4.500;2022-11-11T13:34:08;23.65;;;14.02;;
72684;SDS011;61365;52.162;4.500;2022-11-11T13:36:43;21.45;;;12.73;;
72684;SDS011;61365;52.162;4.500;2022-11-11T13:39:24;22.65;;;12.93;;
72684;SDS011;61365;52.162;4.500;2022-11-11T13:41:54;24.13;;;12.88;;
72684;SDS011;61365;52.162;4.500;2022-11-11T13:44:24;20.92;;;11.63;;
72684;SDS011;61365;52.162;4.500;2022-11-11T13:47:02;19.00;;;12.15;;
72684;SDS011;61365;52.162;4.500;2022-11-11T13:50:22;19.45;;;11.73;;
72684;SDS011;61365;52.162;4.500;2022-11-11T13:52:32;23.50;;;12.60;;
72684;SDS011;61365;52.162;4.500;2022-11-11T13:55:06;18.92;;;11.90;;
72684;SDS011;61365;52.162;4.500;2022-11-11T13:57:58;19.08;;;11.65;;
72684;SDS011;61365;52.162;4.500;2022-11-11T14:00:27;22.13;;;12.38;;
72684;SDS011;61365;52.162;4.500;2022-11-11T14:05:42;17.23;;;11.32;;
72684;SDS011;61365;52.162;4.500;2022-11-11T14:08:09;23.08;;;13.05;;
72684;SDS011;61365;52.162;4.500;2022-11-11T14:13:48;23.63;;;12.27;;
72684;SDS011;61365;52.162;4.500;2022-11-11T14:24:37;20.58;;;12.30;;
72684;SDS011;61365;52.162;4.500;2022-11-11T14:29:37;18.67;;;11.10;;
72684;SDS011;61365;52.162;4.500;2022-11-11T14:38:04;16.98;;;9.65;;
72684;SDS011;61365;52.162;4.500;2022-11-11T14:55:24;17.38;;;9.23;;
72684;SDS011;61365;52.162;4.500;2022-11-11T14:58:06;22.83;;;9.90;;
72684;SDS011;61365;52.162;4.500;2022-11-11T15:03:25;29.67;;;20.65;;
72684;SDS011;61365;52.162;4.500;2022-11-11T15:06:13;20.00;;;10.40;;
72684;SDS011;61365;52.162;4.500;2022-11-11T15:11:42;17.85;;;9.48;;
72684;SDS011;61365;52.162;4.500;2022-11-11T15:25:53;17.23;;;8.13;;
72684;SDS011;61365;52.162;4.500;2022-11-11T15:37:51;34.85;;;23.33;;
72684;SDS011;61365;52.162;4.500;2022-11-11T15:40:23;38.90;;;23.85;;
72684;SDS011;61365;52.162;4.500;2022-11-11T15:42:57;18.17;;;8.98;;
72684;SDS011;61365;52.162;4.500;2022-11-11T15:45:31;15.38;;;8.68;;
72684;SDS011;61365;52.162;4.500;2022-11-11T15:50:30;15.57;;;7.18;;
72684;SDS011;61365;52.162;4.500;2022-11-11T15:53:01;15.65;;;7.75;;
72684;SDS011;61365;52.162;4.500;2022-11-11T15:55:32;14.00;;;7.68;;
72684;SDS011;61365;52.162;4.500;2022-11-11T15:58:15;19.58;;;8.40;;
72684;SDS011;61365;52.162;4.500;2022-11-11T16:00:52;16.45;;;8.07;;
72684;SDS011;61365;52.162;4.500;2022-11-11T16:03:28;16.70;;;8.70;;
72684;SDS011;61365;52.162;4.500;2022-11-11T16:06:01;25.48;;;16.05;;
72684;SDS011;61365;52.162;4.500;2022-11-11T16:08:33;22.95;;;15.38;;
72684;SDS011;61365;52.162;4.500;2022-11-11T16:11:00;21.92;;;10.77;;
72684;SDS011;61365;52.162;4.500;2022-11-11T16:13:29;12.02;;;7.43;;
72684;SDS011;61365;52.162;4.500;2022-11-11T16:16:08;14.88;;;8.20;;
72684;SDS011;61365;52.162;4.500;2022-11-11T16:24:31;26.17;;;8.20;;
72684;SDS011;61365;52.162;4.500;2022-11-11T16:27:03;59.50;;;33.70;;
72684;SDS011;61365;52.162;4.500;2022-11-11T16:29:38;58.28;;;34.20;;
72684;SDS011;61365;52.162;4.500;2022-11-11T16:32:30;32.40;;;18.83;;
72684;SDS011;61365;52.162;4.500;2022-11-11T16:37:26;20.27;;;7.57;;
72684;SDS011;61365;52.162;4.500;2022-11-11T16:39:53;14.82;;;8.05;;
72684;SDS011;61365;52.162;4.500;2022-11-11T16:42:23;17.45;;;7.75;;
72684;SDS011;61365;52.162;4.500;2022-11-11T16:52:44;17.52;;;7.70;;
72684;SDS011;61365;52.162;4.500;2022-11-11T16:57:55;13.40;;;7.15;;
72684;SDS011;61365;52.162;4.500;2022-11-11T17:00:34;10.52;;;6.50;;
72684;SDS011;61365;52.162;4.500;2022-11-11T17:03:13;16.88;;;8.02;;
72684;SDS011;61365;52.162;4.500;2022-11-11T17:06:01;51.42;;;29.77;;
72684;SDS011;61365;52.162;4.500;2022-11-11T17:08:44;103.13;;;61.85;;
72684;SDS011;61365;52.162;4.500;2022-11-11T17:11:40;34.90;;;21.23;;
72684;SDS011;61365;52.162;4.500;2022-11-11T17:14:03;14.55;;;7.97;;
72684;SDS011;61365;52.162;4.500;2022-11-11T17:16:30;17.60;;;8.75;;
72684;SDS011;61365;52.162;4.500;2022-11-11T17:18:58;18.98;;;8.70;;
72684;SDS011;61365;52.162;4.500;2022-11-11T17:21:25;15.95;;;8.43;;
72684;SDS011;61365;52.162;4.500;2022-11-11T17:23:52;18.33;;;8.77;;
72684;SDS011;61365;52.162;4.500;2022-11-11T17:26:18;19.08;;;7.80;;
72684;SDS011;61365;52.162;4.500;2022-11-11T17:28:44;17.58;;;8.57;;
72684;SDS011;61365;52.162;4.500;2022-11-11T17:31:11;15.40;;;8.25;;
72684;SDS011;61365;52.162;4.500;2022-11-11T17:33:38;14.10;;;8.20;;
72684;SDS011;61365;52.162;4.500;2022-11-11T17:36:04;16.13;;;8.70;;
72684;SDS011;61365;52.162;4.500;2022-11-11T17:38:34;17.92;;;9.40;;
72684;SDS011;61365;52.162;4.500;2022-11-11T17:41:02;19.98;;;9.55;;
72684;SDS011;61365;52.162;4.500;2022-11-11T17:43:29;16.25;;;8.88;;
72684;SDS011;61365;52.162;4.500;2022-11-11T17:45:59;15.00;;;9.25;;
72684;SDS011;61365;52.162;4.500;2022-11-11T17:48:29;18.25;;;9.63;;
72684;SDS011;61365;52.162;4.500;2022-11-11T17:50:55;18.15;;;9.10;;